sensor_id;sensor_type;location;lat;lon;timestamp;temperature;humidity
21207;DHT22;10761;48.532;8.026;2022-07-23T00:00:00;23.70;99.90
21207;DHT22;10761;48.532;8.026;2022-07-23T00:02:26;23.70;99.90
21207;DHT22;10761;48.532;8.026;2022-07-23T00:04:51;23.70;99.90
21207;DHT22;10761;48.532;8.026;2022-07-23T00:07:17;23.70;99.90
21207;DHT22;10761;48.532;8.026;2022-07-23T00:09:42;23.80;99.90
21207;DHT22;10761;48.532;8.026;2022-07-23T00:12:08;24.00;99.90
21207;DHT22;10761;48.532;8.026;2022-07-23T00:14:34;24.00;99.90
21207;DHT22;10761;48.532;8.026;2022-07-23T00:16:59;24.10;99.90
21207;DHT22;10761;48.532;8.026;2022-07-23T00:19:25;24.10;99.90
21207;DHT22;10761;48.532;8.026;2022-07-23T00:21:50;24.10;99.90
21207;DHT22;10761;48.532;8.026;2022-07-23T00:24:16;24.10;99.90
21207;DHT22;10761;48.532;8.026;2022-07-23T00:26:41;24.00;99.90
21207;DHT22;10761;48.532;8.026;2022-07-23T00:29:07;23.80;99.90
21207;DHT22;10761;48.532;8.026;2022-07-23T00:31:32;23.60;99.90
21207;DHT22;10761;48.532;8.026;2022-07-23T00:33:58;23.50;99.90
21207;DHT22;10761;48.532;8.026;2022-07-23T00:36:26;23.40;99.90
21207;DHT22;10761;48.532;8.026;2022-07-23T00:38:52;23.20;99.90
21207;DHT22;10761;48.532;8.026;2022-07-23T00:41:18;23.10;99.90
21207;DHT22;10761;48.532;8.026;2022-07-23T00:43:44;23.00;99.90
21207;DHT22;10761;48.532;8.026;2022-07-23T00:46:09;22.90;99.90
21207;DHT22;10761;48.532;8.026;2022-07-23T00:48:35;22.90;99.90
21207;DHT22;10761;48.532;8.026;2022-07-23T00:51:00;22.80;99.90
21207;DHT22;10761;48.532;8.026;2022-07-23T00:53:26;22.70;99.90
21207;DHT22;10761;48.532;8.026;2022-07-23T00:55:53;22.70;99.90
21207;DHT22;10761;48.532;8.026;2022-07-23T00:58:18;22.60;99.90
21207;DHT22;10761;48.532;8.026;2022-07-23T01:00:44;22.50;99.90
21207;DHT22;10761;48.532;8.026;2022-07-23T01:03:10;22.40;99.90
21207;DHT22;10761;48.532;8.026;2022-07-23T01:05:35;22.30;99.90
21207;DHT22;10761;48.532;8.026;2022-07-23T01:08:01;22.20;99.90
21207;DHT22;10761;48.532;8.026;2022-07-23T01:10:27;22.20;99.90
21207;DHT22;10761;48.532;8.026;2022-07-23T01:13:00;22.20;99.90
21207;DHT22;10761;48.532;8.026;2022-07-23T01:15:26;22.20;99.90
21207;DHT22;10761;48.532;8.026;2022-07-23T01:17:51;22.00;99.90
21207;DHT22;10761;48.532;8.026;2022-07-23T01:20:18;22.00;99.90
21207;DHT22;10761;48.532;8.026;2022-07-23T01:22:44;21.90;99.90
21207;DHT22;10761;48.532;8.026;2022-07-23T01:25:10;21.80;99.90
21207;DHT22;10761;48.532;8.026;2022-07-23T01:27:35;21.70;99.90
21207;DHT22;10761;48.532;8.026;2022-07-23T01:30:03;21.60;99.90
21207;DHT22;10761;48.532;8.026;2022-07-23T01:32:29;21.50;99.90
21207;DHT22;10761;48.532;8.026;2022-07-23T01:34:54;21.50;99.90
21207;DHT22;10761;48.532;8.026;2022-07-23T01:37:20;21.50;99.90
21207;DHT22;10761;48.532;8.026;2022-07-23T01:39:45;21.40;99.90
21207;DHT22;10761;48.532;8.026;2022-07-23T01:42:11;21.30;99.90
21207;DHT22;10761;48.532;8.026;2022-07-23T01:44:36;21.30;99.90
21207;DHT22;10761;48.532;8.026;2022-07-23T01:47:02;21.20;99.90
21207;DHT22;10761;48.532;8.026;2022-07-23T01:49:28;21.20;99.90
21207;DHT22;10761;48.532;8.026;2022-07-23T01:51:53;21.20;99.90
21207;DHT22;10761;48.532;8.026;2022-07-23T01:54:31;21.10;99.90
21207;DHT22;10761;48.532;8.026;2022-07-23T01:56:57;21.00;99.90
21207;DHT22;10761;48.532;8.026;2022-07-23T01:59:23;20.90;99.90
21207;DHT22;10761;48.532;8.026;2022-07-23T02:01:49;20.80;99.90
21207;DHT22;10761;48.532;8.026;2022-07-23T02:04:18;20.60;99.90
21207;DHT22;10761;48.532;8.026;2022-07-23T02:06:44;20.50;99.90
21207;DHT22;10761;48.532;8.026;2022-07-23T02:09:10;20.50;99.90
21207;DHT22;10761;48.532;8.026;2022-07-23T02:11:36;20.40;99.90
21207;DHT22;10761;48.532;8.026;2022-07-23T02:14:01;20.40;99.90
21207;DHT22;10761;48.532;8.026;2022-07-23T02:16:27;20.40;99.90
21207;DHT22;10761;48.532;8.026;2022-07-23T02:18:53;20.40;99.90
21207;DHT22;10761;48.532;8.026;2022-07-23T02:21:18;20.40;99.90
21207;DHT22;10761;48.532;8.026;2022-07-23T02:23:44;20.60;99.90
21207;DHT22;10761;48.532;8.026;2022-07-23T02:26:09;20.70;99.90
21207;DHT22;10761;48.532;8.026;2022-07-23T02:28:35;20.80;99.90
21207;DHT22;10761;48.532;8.026;2022-07-23T02:31:00;20.70;99.90
21207;DHT22;10761;48.532;8.026;2022-07-23T02:33:26;20.80;99.90
21207;DHT22;10761;48.532;8.026;2022-07-23T02:35:52;20.80;99.90
21207;DHT22;10761;48.532;8.026;2022-07-23T02:38:17;20.80;99.90
21207;DHT22;10761;48.532;8.026;2022-07-23T02:40:43;20.90;99.90
21207;DHT22;10761;48.532;8.026;2022-07-23T02:43:08;20.90;99.90
21207;DHT22;10761;48.532;8.026;2022-07-23T02:45:34;21.00;99.90
21207;DHT22;10761;48.532;8.026;2022-07-23T02:47:59;21.00;99.90
21207;DHT22;10761;48.532;8.026;2022-07-23T02:50:25;21.20;99.90
21207;DHT22;10761;48.532;8.026;2022-07-23T02:52:50;21.20;99.90
21207;DHT22;10761;48.532;8.026;2022-07-23T02:55:16;21.20;99.90
21207;DHT22;10761;48.532;8.026;2022-07-23T02:57:41;21.20;99.90
21207;DHT22;10761;48.532;8.026;2022-07-23T03:00:07;21.20;99.90
21207;DHT22;10761;48.532;8.026;2022-07-23T03:02:33;21.20;99.90
21207;DHT22;10761;48.532;8.026;2022-07-23T03:04:59;21.20;99.90
21207;DHT22;10761;48.532;8.026;2022-07-23T03:07:24;21.20;99.90
21207;DHT22;10761;48.532;8.026;2022-07-23T03:09:51;21.20;99.90
21207;DHT22;10761;48.532;8.026;2022-07-23T03:12:17;21.20;99.90
21207;DHT22;10761;48.532;8.026;2022-07-23T03:14:42;21.20;99.90
21207;DHT22;10761;48.532;8.026;2022-07-23T03:17:09;21.20;99.90
21207;DHT22;10761;48.532;8.026;2022-07-23T03:19:35;21.20;99.90
21207;DHT22;10761;48.532;8.026;2022-07-23T03:22:00;21.20;99.90
21207;DHT22;10761;48.532;8.026;2022-07-23T03:24:26;21.10;99.90
21207;DHT22;10761;48.532;8.026;2022-07-23T03:27:11;21.00;99.90
21207;DHT22;10761;48.532;8.026;2022-07-23T03:29:37;20.90;99.90
21207;DHT22;10761;48.532;8.026;2022-07-23T03:32:03;20.70;99.90
21207;DHT22;10761;48.532;8.026;2022-07-23T03:34:29;20.60;99.90
21207;DHT22;10761;48.532;8.026;2022-07-23T03:36:54;20.50;99.90
21207;DHT22;10761;48.532;8.026;2022-07-23T03:39:20;20.50;99.90
21207;DHT22;10761;48.532;8.026;2022-07-23T03:41:45;20.50;99.90
21207;DHT22;10761;48.532;8.026;2022-07-23T03:44:11;20.50;99.90
21207;DHT22;10761;48.532;8.026;2022-07-23T03:46:36;20.50;99.90
21207;DHT22;10761;48.532;8.026;2022-07-23T03:49:02;20.50;99.90
21207;DHT22;10761;48.532;8.026;2022-07-23T03:51:28;20.40;99.90
21207;DHT22;10761;48.532;8.026;2022-07-23T03:53:53;20.40;99.90
21207;DHT22;10761;48.532;8.026;2022-07-23T03:56:20;20.30;99.90
21207;DHT22;10761;48.532;8.026;2022-07-23T03:58:46;20.40;99.90
21207;DHT22;10761;48.532;8.026;2022-07-23T04:01:11;20.40;99.90
21207;DHT22;10761;48.532;8.026;2022-07-23T04:03:37;20.50;99.90
21207;DHT22;10761;48.532;8.026;2022-07-23T04:06:03;20.50;99.90
21207;DHT22;10761;48.532;8.026;2022-07-23T04:08:28;20.50;99.90
21207;DHT22;10761;48.532;8.026;2022-07-23T04:10:55;20.60;99.90
21207;DHT22;10761;48.532;8.026;2022-07-23T04:13:21;20.60;99.90
21207;DHT22;10761;48.532;8.026;2022-07-23T04:15:47;20.70;99.90
21207;DHT22;10761;48.532;8.026;2022-07-23T04:18:12;20.60;99.90
21207;DHT22;10761;48.532;8.026;2022-07-23T04:20:38;20.60;99.90
21207;DHT22;10761;48.532;8.026;2022-07-23T04:23:03;20.60;99.90
21207;DHT22;10761;48.532;8.026;2022-07-23T04:25:29;20.50;99.90
21207;DHT22;10761;48.532;8.026;2022-07-23T04:27:55;20.50;99.90
21207;DHT22;10761;48.532;8.026;2022-07-23T04:30:20;20.60;99.90
21207;DHT22;10761;48.532;8.026;2022-07-23T04:32:46;20.60;99.90
21207;DHT22;10761;48.532;8.026;2022-07-23T04:35:12;20.70;99.90
21207;DHT22;10761;48.532;8.026;2022-07-23T04:37:37;20.70;99.90
21207;DHT22;10761;48.532;8.026;2022-07-23T04:40:03;20.70;99.90
21207;DHT22;10761;48.532;8.026;2022-07-23T04:42:29;20.80;99.90
21207;DHT22;10761;48.532;8.026;2022-07-23T04:44:54;20.90;99.90
21207;DHT22;10761;48.532;8.026;2022-07-23T04:47:20;21.00;99.90
21207;DHT22;10761;48.532;8.026;2022-07-23T04:49:45;21.10;99.90
21207;DHT22;10761;48.532;8.026;2022-07-23T04:52:11;21.20;99.90
21207;DHT22;10761;48.532;8.026;2022-07-23T04:54:37;21.30;99.90
21207;DHT22;10761;48.532;8.026;2022-07-23T04:57:03;21.40;99.90
21207;DHT22;10761;48.532;8.026;2022-07-23T04:59:28;21.50;99.90
21207;DHT22;10761;48.532;8.026;2022-07-23T05:01:54;21.40;99.90
21207;DHT22;10761;48.532;8.026;2022-07-23T05:04:19;21.40;99.90
21207;DHT22;10761;48.532;8.026;2022-07-23T05:06:45;21.30;99.90
21207;DHT22;10761;48.532;8.026;2022-07-23T05:09:10;21.40;99.90
21207;DHT22;10761;48.532;8.026;2022-07-23T05:11:36;21.50;99.90
21207;DHT22;10761;48.532;8.026;2022-07-23T05:14:01;21.60;99.90
21207;DHT22;10761;48.532;8.026;2022-07-23T05:16:27;21.70;99.90
21207;DHT22;10761;48.532;8.026;2022-07-23T05:18:52;21.80;99.90
21207;DHT22;10761;48.532;8.026;2022-07-23T05:21:19;21.80;99.90
21207;DHT22;10761;48.532;8.026;2022-07-23T05:23:44;21.90;99.90
21207;DHT22;10761;48.532;8.026;2022-07-23T05:26:10;22.10;99.90
21207;DHT22;10761;48.532;8.026;2022-07-23T05:28:36;22.10;99.90
21207;DHT22;10761;48.532;8.026;2022-07-23T05:31:01;22.40;99.90
21207;DHT22;10761;48.532;8.026;2022-07-23T05:33:29;22.50;99.90
21207;DHT22;10761;48.532;8.026;2022-07-23T05:36:00;22.80;99.90
21207;DHT22;10761;48.532;8.026;2022-07-23T05:38:26;22.90;99.90
21207;DHT22;10761;48.532;8.026;2022-07-23T05:40:52;22.90;99.90
21207;DHT22;10761;48.532;8.026;2022-07-23T05:43:17;22.90;99.90
21207;DHT22;10761;48.532;8.026;2022-07-23T05:45:43;22.80;99.90
21207;DHT22;10761;48.532;8.026;2022-07-23T05:48:08;22.70;99.90
21207;DHT22;10761;48.532;8.026;2022-07-23T05:50:34;22.70;99.90
21207;DHT22;10761;48.532;8.026;2022-07-23T05:52:59;22.70;99.90
21207;DHT22;10761;48.532;8.026;2022-07-23T05:55:25;22.60;99.90
21207;DHT22;10761;48.532;8.026;2022-07-23T05:57:51;22.50;99.90
21207;DHT22;10761;48.532;8.026;2022-07-23T06:00:16;22.40;99.90
21207;DHT22;10761;48.532;8.026;2022-07-23T06:02:42;22.50;99.90
21207;DHT22;10761;48.532;8.026;2022-07-23T06:05:07;22.40;99.90
21207;DHT22;10761;48.532;8.026;2022-07-23T06:07:34;22.50;99.90
21207;DHT22;10761;48.532;8.026;2022-07-23T06:09:59;22.70;99.90
21207;DHT22;10761;48.532;8.026;2022-07-23T06:12:25;22.90;99.90
21207;DHT22;10761;48.532;8.026;2022-07-23T06:14:51;23.00;99.90
21207;DHT22;10761;48.532;8.026;2022-07-23T06:17:18;23.20;99.90
21207;DHT22;10761;48.532;8.026;2022-07-23T06:19:43;23.40;99.90
21207;DHT22;10761;48.532;8.026;2022-07-23T06:22:09;23.40;99.90
21207;DHT22;10761;48.532;8.026;2022-07-23T06:24:34;23.40;99.90
21207;DHT22;10761;48.532;8.026;2022-07-23T06:27:00;23.50;99.90
21207;DHT22;10761;48.532;8.026;2022-07-23T06:29:25;23.60;99.90
21207;DHT22;10761;48.532;8.026;2022-07-23T06:31:51;23.70;99.90
21207;DHT22;10761;48.532;8.026;2022-07-23T06:34:16;23.80;99.90
21207;DHT22;10761;48.532;8.026;2022-07-23T06:36:42;24.00;99.90
21207;DHT22;10761;48.532;8.026;2022-07-23T06:39:07;24.10;99.90
21207;DHT22;10761;48.532;8.026;2022-07-23T06:41:33;24.20;99.90
21207;DHT22;10761;48.532;8.026;2022-07-23T06:43:59;24.20;99.90
21207;DHT22;10761;48.532;8.026;2022-07-23T06:46:24;24.30;99.90
21207;DHT22;10761;48.532;8.026;2022-07-23T06:48:50;24.30;99.90
21207;DHT22;10761;48.532;8.026;2022-07-23T06:51:16;24.40;99.90
21207;DHT22;10761;48.532;8.026;2022-07-23T06:53:41;24.50;99.90
21207;DHT22;10761;48.532;8.026;2022-07-23T06:56:07;24.70;99.90
21207;DHT22;10761;48.532;8.026;2022-07-23T06:58:33;24.80;99.90
21207;DHT22;10761;48.532;8.026;2022-07-23T07:00:58;24.90;99.90
21207;DHT22;10761;48.532;8.026;2022-07-23T07:03:24;24.90;99.90
21207;DHT22;10761;48.532;8.026;2022-07-23T07:05:49;24.90;99.90
21207;DHT22;10761;48.532;8.026;2022-07-23T07:08:16;24.80;99.90
21207;DHT22;10761;48.532;8.026;2022-07-23T07:10:41;24.80;99.90
21207;DHT22;10761;48.532;8.026;2022-07-23T07:13:07;24.70;99.90
21207;DHT22;10761;48.532;8.026;2022-07-23T07:15:32;24.30;99.90
21207;DHT22;10761;48.532;8.026;2022-07-23T07:17:58;24.60;99.90
21207;DHT22;10761;48.532;8.026;2022-07-23T07:20:23;24.90;99.90
21207;DHT22;10761;48.532;8.026;2022-07-23T07:22:49;25.00;99.90
21207;DHT22;10761;48.532;8.026;2022-07-23T07:25:15;25.00;99.90
21207;DHT22;10761;48.532;8.026;2022-07-23T07:27:40;25.20;99.90
21207;DHT22;10761;48.532;8.026;2022-07-23T07:30:07;25.60;99.90
21207;DHT22;10761;48.532;8.026;2022-07-23T07:32:33;25.90;99.90
21207;DHT22;10761;48.532;8.026;2022-07-23T07:34:59;26.20;99.90
21207;DHT22;10761;48.532;8.026;2022-07-23T07:37:24;26.20;99.90
21207;DHT22;10761;48.532;8.026;2022-07-23T07:39:50;26.20;99.90
21207;DHT22;10761;48.532;8.026;2022-07-23T07:42:15;25.90;99.90
21207;DHT22;10761;48.532;8.026;2022-07-23T07:44:41;25.90;99.90
21207;DHT22;10761;48.532;8.026;2022-07-23T07:47:06;25.50;99.90
21207;DHT22;10761;48.532;8.026;2022-07-23T07:49:33;25.10;99.90
21207;DHT22;10761;48.532;8.026;2022-07-23T07:51:58;24.80;99.90
21207;DHT22;10761;48.532;8.026;2022-07-23T07:54:24;24.80;99.90
21207;DHT22;10761;48.532;8.026;2022-07-23T07:56:49;24.80;99.90
21207;DHT22;10761;48.532;8.026;2022-07-23T07:59:15;25.10;99.90
21207;DHT22;10761;48.532;8.026;2022-07-23T08:01:40;25.40;99.90
21207;DHT22;10761;48.532;8.026;2022-07-23T08:04:06;25.60;99.90
21207;DHT22;10761;48.532;8.026;2022-07-23T08:06:32;25.90;99.90
21207;DHT22;10761;48.532;8.026;2022-07-23T08:08:57;26.00;99.90
21207;DHT22;10761;48.532;8.026;2022-07-23T08:11:23;25.90;99.90
21207;DHT22;10761;48.532;8.026;2022-07-23T08:13:48;25.50;99.90
21207;DHT22;10761;48.532;8.026;2022-07-23T08:16:14;25.40;99.90
21207;DHT22;10761;48.532;8.026;2022-07-23T08:18:40;25.40;99.90
21207;DHT22;10761;48.532;8.026;2022-07-23T08:21:05;25.50;99.90
21207;DHT22;10761;48.532;8.026;2022-07-23T08:23:31;25.50;99.90
21207;DHT22;10761;48.532;8.026;2022-07-23T08:25:57;25.50;99.90
21207;DHT22;10761;48.532;8.026;2022-07-23T08:28:24;25.40;99.90
21207;DHT22;10761;48.532;8.026;2022-07-23T08:30:50;25.20;99.90
21207;DHT22;10761;48.532;8.026;2022-07-23T08:33:17;25.50;99.90
21207;DHT22;10761;48.532;8.026;2022-07-23T08:35:48;25.90;99.90
21207;DHT22;10761;48.532;8.026;2022-07-23T08:38:16;26.50;99.90
21207;DHT22;10761;48.532;8.026;2022-07-23T08:40:45;27.00;99.90
21207;DHT22;10761;48.532;8.026;2022-07-23T08:43:13;27.40;99.90
21207;DHT22;10761;48.532;8.026;2022-07-23T08:45:47;28.10;99.90
21207;DHT22;10761;48.532;8.026;2022-07-23T08:48:21;28.50;99.90
21207;DHT22;10761;48.532;8.026;2022-07-23T08:50:54;29.00;99.90
21207;DHT22;10761;48.532;8.026;2022-07-23T08:53:22;29.20;99.90
21207;DHT22;10761;48.532;8.026;2022-07-23T08:55:50;29.80;99.90
21207;DHT22;10761;48.532;8.026;2022-07-23T08:58:16;29.80;99.90
21207;DHT22;10761;48.532;8.026;2022-07-23T09:00:42;29.30;99.90
21207;DHT22;10761;48.532;8.026;2022-07-23T09:03:15;28.90;99.90
21207;DHT22;10761;48.532;8.026;2022-07-23T09:05:42;28.30;99.90
21207;DHT22;10761;48.532;8.026;2022-07-23T09:08:13;28.40;99.90
21207;DHT22;10761;48.532;8.026;2022-07-23T09:15:59;28.30;99.90
21207;DHT22;10761;48.532;8.026;2022-07-23T09:18:36;28.30;99.90
21207;DHT22;10761;48.532;8.026;2022-07-23T09:21:24;28.00;99.90
21207;DHT22;10761;48.532;8.026;2022-07-23T09:26:42;27.90;99.90
21207;DHT22;10761;48.532;8.026;2022-07-23T09:29:21;28.40;99.90
21207;DHT22;10761;48.532;8.026;2022-07-23T09:31:51;28.90;99.90
21207;DHT22;10761;48.532;8.026;2022-07-23T09:36:44;28.70;99.90
21207;DHT22;10761;48.532;8.026;2022-07-23T09:39:11;29.00;99.90
21207;DHT22;10761;48.532;8.026;2022-07-23T09:41:42;29.20;99.90
21207;DHT22;10761;48.532;8.026;2022-07-23T09:44:13;29.20;99.90
21207;DHT22;10761;48.532;8.026;2022-07-23T09:46:39;29.00;99.90
21207;DHT22;10761;48.532;8.026;2022-07-23T09:49:14;29.30;99.90
21207;DHT22;10761;48.532;8.026;2022-07-23T09:51:44;29.30;99.90
21207;DHT22;10761;48.532;8.026;2022-07-23T09:54:23;29.30;99.90
21207;DHT22;10761;48.532;8.026;2022-07-23T09:56:51;29.00;99.90
21207;DHT22;10761;48.532;8.026;2022-07-23T09:59:17;29.20;99.90
21207;DHT22;10761;48.532;8.026;2022-07-23T10:01:44;29.00;99.90
21207;DHT22;10761;48.532;8.026;2022-07-23T10:04:14;28.80;99.90
21207;DHT22;10761;48.532;8.026;2022-07-23T10:06:40;28.70;99.90
21207;DHT22;10761;48.532;8.026;2022-07-23T10:09:08;28.80;99.90
21207;DHT22;10761;48.532;8.026;2022-07-23T10:11:37;29.10;99.90
21207;DHT22;10761;48.532;8.026;2022-07-23T10:14:03;29.20;99.90
21207;DHT22;10761;48.532;8.026;2022-07-23T10:16:31;29.20;99.90
21207;DHT22;10761;48.532;8.026;2022-07-23T10:18:57;29.40;99.90
21207;DHT22;10761;48.532;8.026;2022-07-23T10:21:37;29.60;99.90
21207;DHT22;10761;48.532;8.026;2022-07-23T10:24:30;29.70;99.90
21207;DHT22;10761;48.532;8.026;2022-07-23T10:27:10;29.90;99.90
21207;DHT22;10761;48.532;8.026;2022-07-23T10:29:51;30.20;99.90
21207;DHT22;10761;48.532;8.026;2022-07-23T10:35:17;30.70;99.90
21207;DHT22;10761;48.532;8.026;2022-07-23T10:37:47;31.30;99.90
21207;DHT22;10761;48.532;8.026;2022-07-23T10:40:19;31.30;99.90
21207;DHT22;10761;48.532;8.026;2022-07-23T10:42:46;31.70;99.90
21207;DHT22;10761;48.532;8.026;2022-07-23T10:45:25;31.70;99.90
21207;DHT22;10761;48.532;8.026;2022-07-23T10:47:51;31.30;99.90
21207;DHT22;10761;48.532;8.026;2022-07-23T10:50:23;31.50;99.90
21207;DHT22;10761;48.532;8.026;2022-07-23T10:53:22;31.70;99.90
21207;DHT22;10761;48.532;8.026;2022-07-23T10:55:48;31.20;99.90
21207;DHT22;10761;48.532;8.026;2022-07-23T10:58:23;31.00;99.90
21207;DHT22;10761;48.532;8.026;2022-07-23T11:03:59;30.10;99.90
21207;DHT22;10761;48.532;8.026;2022-07-23T11:09:40;30.30;99.90
21207;DHT22;10761;48.532;8.026;2022-07-23T11:20:21;31.80;99.90
21207;DHT22;10761;48.532;8.026;2022-07-23T11:22:54;32.20;99.90
21207;DHT22;10761;48.532;8.026;2022-07-23T11:27:53;33.10;99.90
21207;DHT22;10761;48.532;8.026;2022-07-23T11:35:39;33.20;99.90
21207;DHT22;10761;48.532;8.026;2022-07-23T11:40:34;33.90;99.90
21207;DHT22;10761;48.532;8.026;2022-07-23T11:43:03;34.30;98.20
21207;DHT22;10761;48.532;8.026;2022-07-23T11:45:35;34.50;99.20
21207;DHT22;10761;48.532;8.026;2022-07-23T11:48:01;34.90;97.10
21207;DHT22;10761;48.532;8.026;2022-07-23T11:50:27;34.90;96.20
21207;DHT22;10761;48.532;8.026;2022-07-23T11:52:54;34.70;95.50
21207;DHT22;10761;48.532;8.026;2022-07-23T11:55:20;34.40;95.80
21207;DHT22;10761;48.532;8.026;2022-07-23T11:57:46;34.50;96.50
21207;DHT22;10761;48.532;8.026;2022-07-23T12:00:14;34.50;96.40
21207;DHT22;10761;48.532;8.026;2022-07-23T12:02:51;34.80;96.30
21207;DHT22;10761;48.532;8.026;2022-07-23T12:05:24;34.30;94.10
21207;DHT22;10761;48.532;8.026;2022-07-23T12:07:51;34.00;93.80
21207;DHT22;10761;48.532;8.026;2022-07-23T12:10:22;33.90;92.70
21207;DHT22;10761;48.532;8.026;2022-07-23T12:13:02;33.50;93.30
21207;DHT22;10761;48.532;8.026;2022-07-23T12:15:31;33.70;94.20
21207;DHT22;10761;48.532;8.026;2022-07-23T12:17:59;33.80;94.70
21207;DHT22;10761;48.532;8.026;2022-07-23T12:20:26;33.80;94.00
21207;DHT22;10761;48.532;8.026;2022-07-23T12:22:56;33.70;94.10
21207;DHT22;10761;48.532;8.026;2022-07-23T12:25:25;33.00;94.80
21207;DHT22;10761;48.532;8.026;2022-07-23T12:28:09;33.30;94.20
21207;DHT22;10761;48.532;8.026;2022-07-23T12:33:07;33.90;95.10
21207;DHT22;10761;48.532;8.026;2022-07-23T12:35:40;33.40;95.10
21207;DHT22;10761;48.532;8.026;2022-07-23T12:38:09;33.80;95.20
21207;DHT22;10761;48.532;8.026;2022-07-23T12:40:37;33.40;94.30
21207;DHT22;10761;48.532;8.026;2022-07-23T12:43:09;32.80;95.10
21207;DHT22;10761;48.532;8.026;2022-07-23T12:45:52;32.60;97.10
21207;DHT22;10761;48.532;8.026;2022-07-23T12:48:21;33.10;97.20
21207;DHT22;10761;48.532;8.026;2022-07-23T12:50:57;33.00;95.10
21207;DHT22;10761;48.532;8.026;2022-07-23T12:53:29;33.20;96.10
21207;DHT22;10761;48.532;8.026;2022-07-23T12:56:00;32.80;96.10
21207;DHT22;10761;48.532;8.026;2022-07-23T12:58:26;32.90;97.60
21207;DHT22;10761;48.532;8.026;2022-07-23T13:01:04;33.40;97.10
21207;DHT22;10761;48.532;8.026;2022-07-23T13:05:58;33.10;97.00
21207;DHT22;10761;48.532;8.026;2022-07-23T13:08:26;32.60;97.00
21207;DHT22;10761;48.532;8.026;2022-07-23T13:10:52;32.00;98.00
21207;DHT22;10761;48.532;8.026;2022-07-23T13:13:21;31.70;98.70
21207;DHT22;10761;48.532;8.026;2022-07-23T13:15:47;31.90;99.50
21207;DHT22;10761;48.532;8.026;2022-07-23T13:18:13;32.50;98.40
21207;DHT22;10761;48.532;8.026;2022-07-23T13:20:38;33.20;98.60
21207;DHT22;10761;48.532;8.026;2022-07-23T13:23:07;33.60;97.40
21207;DHT22;10761;48.532;8.026;2022-07-23T13:25:32;34.10;97.00
21207;DHT22;10761;48.532;8.026;2022-07-23T13:27:58;34.60;96.80
21207;DHT22;10761;48.532;8.026;2022-07-23T13:30:24;35.30;94.50
21207;DHT22;10761;48.532;8.026;2022-07-23T13:32:49;35.70;95.50
21207;DHT22;10761;48.532;8.026;2022-07-23T13:35:15;35.90;94.30
21207;DHT22;10761;48.532;8.026;2022-07-23T13:37:41;35.80;93.30
21207;DHT22;10761;48.532;8.026;2022-07-23T13:40:07;35.50;92.40
21207;DHT22;10761;48.532;8.026;2022-07-23T13:42:33;35.00;92.60
21207;DHT22;10761;48.532;8.026;2022-07-23T13:44:59;35.20;93.00
21207;DHT22;10761;48.532;8.026;2022-07-23T13:47:25;35.40;93.40
21207;DHT22;10761;48.532;8.026;2022-07-23T13:49:50;35.60;92.50
21207;DHT22;10761;48.532;8.026;2022-07-23T13:52:16;35.60;93.30
21207;DHT22;10761;48.532;8.026;2022-07-23T13:54:42;35.80;91.10
21207;DHT22;10761;48.532;8.026;2022-07-23T13:57:07;36.20;91.90
21207;DHT22;10761;48.532;8.026;2022-07-23T13:59:35;35.80;90.20
21207;DHT22;10761;48.532;8.026;2022-07-23T14:02:02;35.20;89.20
21207;DHT22;10761;48.532;8.026;2022-07-23T14:04:28;34.20;90.10
21207;DHT22;10761;48.532;8.026;2022-07-23T14:06:54;33.70;91.60
21207;DHT22;10761;48.532;8.026;2022-07-23T14:09:19;33.30;92.30
21207;DHT22;10761;48.532;8.026;2022-07-23T14:11:45;32.80;92.20
21207;DHT22;10761;48.532;8.026;2022-07-23T14:14:11;32.80;93.40
21207;DHT22;10761;48.532;8.026;2022-07-23T14:16:36;32.90;92.90
21207;DHT22;10761;48.532;8.026;2022-07-23T14:19:02;33.10;92.80
21207;DHT22;10761;48.532;8.026;2022-07-23T14:21:27;33.50;93.30
21207;DHT22;10761;48.532;8.026;2022-07-23T14:23:53;34.20;92.90
21207;DHT22;10761;48.532;8.026;2022-07-23T14:26:19;34.70;90.60
21207;DHT22;10761;48.532;8.026;2022-07-23T14:28:44;34.60;90.10
21207;DHT22;10761;48.532;8.026;2022-07-23T14:31:10;35.00;91.00
21207;DHT22;10761;48.532;8.026;2022-07-23T14:33:36;35.00;90.60
21207;DHT22;10761;48.532;8.026;2022-07-23T14:36:02;34.60;88.20
21207;DHT22;10761;48.532;8.026;2022-07-23T14:38:27;33.90;89.50
21207;DHT22;10761;48.532;8.026;2022-07-23T14:40:56;33.80;90.40
21207;DHT22;10761;48.532;8.026;2022-07-23T14:43:21;33.50;90.20
21207;DHT22;10761;48.532;8.026;2022-07-23T14:45:47;33.00;90.30
21207;DHT22;10761;48.532;8.026;2022-07-23T14:48:12;32.90;90.50
21207;DHT22;10761;48.532;8.026;2022-07-23T14:50:38;32.80;90.80
21207;DHT22;10761;48.532;8.026;2022-07-23T14:53:03;32.20;91.70
21207;DHT22;10761;48.532;8.026;2022-07-23T14:55:31;32.10;92.40
21207;DHT22;10761;48.532;8.026;2022-07-23T14:57:57;32.00;93.50
21207;DHT22;10761;48.532;8.026;2022-07-23T15:00:23;32.20;93.10
21207;DHT22;10761;48.532;8.026;2022-07-23T15:02:48;32.40;92.50
21207;DHT22;10761;48.532;8.026;2022-07-23T15:05:14;32.30;91.80
21207;DHT22;10761;48.532;8.026;2022-07-23T15:07:39;32.10;92.40
21207;DHT22;10761;48.532;8.026;2022-07-23T15:10:06;32.10;92.50
21207;DHT22;10761;48.532;8.026;2022-07-23T15:12:31;32.10;92.90
21207;DHT22;10761;48.532;8.026;2022-07-23T15:14:57;32.50;94.50
21207;DHT22;10761;48.532;8.026;2022-07-23T15:17:22;32.90;94.50
21207;DHT22;10761;48.532;8.026;2022-07-23T15:19:48;33.30;93.10
21207;DHT22;10761;48.532;8.026;2022-07-23T15:22:13;33.80;93.30
21207;DHT22;10761;48.532;8.026;2022-07-23T15:24:39;34.30;92.30
21207;DHT22;10761;48.532;8.026;2022-07-23T15:27:05;34.20;91.70
21207;DHT22;10761;48.532;8.026;2022-07-23T15:29:30;34.00;91.60
21207;DHT22;10761;48.532;8.026;2022-07-23T15:31:56;33.80;91.60
21207;DHT22;10761;48.532;8.026;2022-07-23T15:34:21;33.50;90.50
21207;DHT22;10761;48.532;8.026;2022-07-23T15:36:47;32.90;91.90
21207;DHT22;10761;48.532;8.026;2022-07-23T15:39:12;32.70;93.00
21207;DHT22;10761;48.532;8.026;2022-07-23T15:41:38;32.50;92.50
21207;DHT22;10761;48.532;8.026;2022-07-23T15:44:04;32.40;93.30
21207;DHT22;10761;48.532;8.026;2022-07-23T15:46:30;31.90;92.00
21207;DHT22;10761;48.532;8.026;2022-07-23T15:48:55;31.50;92.70
21207;DHT22;10761;48.532;8.026;2022-07-23T15:51:21;31.40;93.60
21207;DHT22;10761;48.532;8.026;2022-07-23T15:53:46;31.30;93.40
21207;DHT22;10761;48.532;8.026;2022-07-23T15:56:12;31.30;93.70
21207;DHT22;10761;48.532;8.026;2022-07-23T15:58:38;31.20;94.00
21207;DHT22;10761;48.532;8.026;2022-07-23T16:01:04;31.30;93.80
21207;DHT22;10761;48.532;8.026;2022-07-23T16:03:33;31.20;93.90
21207;DHT22;10761;48.532;8.026;2022-07-23T16:05:59;31.10;93.60
21207;DHT22;10761;48.532;8.026;2022-07-23T16:08:24;31.10;94.00
21207;DHT22;10761;48.532;8.026;2022-07-23T16:10:50;31.30;93.80